Terminal Aerodrome Forecast
Issued by NWS Pocatello, ID

Home | Current Version | Previous Version | Text Only | Print | Product List | Glossary On
Versions: 1 2 3 4 5 6 7 8 9 10 11 12 13 14 15
231
FTUS45 KPIH 231018 AAA
TAFBYI
TAF AMD
KBYI 231018Z 2310/2406 25014G24KT P6SM SCT015 BKN150
     FM231800 28016G26KT P6SM SCT015 BKN060
     FM240100 24009KT P6SM SKC=

USA.gov is the U.S. government's official web portal to all federal, state and local government web resources and services.